Time;durP1;ratioP1;P1;durP2;ratioP2;P2;SDS_P1;SDS_P2;PMS_P1;PMS_P2;Temp;Humidity;BMP_temperature;BMP_pressure;BME280_temperature;BME280_humidity;BME280_pressure;Samples;Min_cycle;Max_cycle;Signal;HPM_P1;HPM_P2
2021/11/04 00:02:03;;;;;;;50.10;27.40;;;;;;;9.34;91.22;100375.75;5094647;28;20027;-74
2021/11/04 00:04:29;;;;;;;47.25;25.50;;;;;;;9.36;91.48;100375.44;5094912;28;20426;-75
2021/11/04 00:06:55;;;;;;;43.50;23.92;;;;;;;9.36;91.28;100370.00;5094443;28;20483;-74
2021/11/04 00:09:21;;;;;;;46.42;26.52;;;;;;;9.36;91.14;100375.44;5093129;28;20063;-74
2021/11/04 00:11:47;;;;;;;46.38;26.83;;;;;;;9.33;91.34;100374.94;5093200;28;20490;-74
2021/11/04 00:14:12;;;;;;;43.72;25.73;;;;;;;9.34;91.08;100378.47;5076412;28;20485;-73
2021/11/04 00:16:37;;;;;;;46.42;25.65;;;;;;;9.32;91.17;100380.63;5092977;28;20020;-73
2021/11/04 00:19:03;;;;;;;44.95;26.17;;;;;;;9.31;90.99;100374.38;5093188;28;20376;-74
2021/11/04 00:21:28;;;;;;;48.60;26.85;;;;;;;9.30;91.10;100383.66;5094385;28;20031;-75
2021/11/04 00:23:55;;;;;;;49.80;27.95;;;;;;;9.31;91.10;100379.81;5094094;28;20024;-74
2021/11/04 00:26:20;;;;;;;47.75;27.63;;;;;;;9.30;91.09;100382.81;5093525;28;20020;-74
2021/11/04 00:28:46;;;;;;;43.20;26.20;;;;;;;9.30;91.06;100386.38;5076102;28;20027;-73
2021/11/04 00:31:12;;;;;;;44.92;26.40;;;;;;;9.30;90.92;100378.22;5094227;28;20025;-74
2021/11/04 00:33:37;;;;;;;53.38;28.20;;;;;;;9.29;90.99;100382.00;5076275;28;20048;-74
2021/11/04 00:36:03;;;;;;;49.33;26.42;;;;;;;9.31;90.98;100379.00;5092788;28;20035;-74
2021/11/04 00:38:28;;;;;;;44.80;26.88;;;;;;;9.32;90.96;100386.06;5092813;28;20078;-75
2021/11/04 00:40:55;;;;;;;49.03;26.20;;;;;;;9.33;90.81;100388.53;5092685;28;20031;-76
2021/11/04 00:43:21;;;;;;;45.08;26.63;;;;;;;9.36;90.94;100389.03;5093960;28;20400;-75
2021/11/04 00:45:46;;;;;;;49.10;27.27;;;;;;;9.36;91.08;100387.16;5078799;28;20024;-75
2021/11/04 00:48:11;;;;;;;59.15;26.90;;;;;;;9.39;90.78;100396.69;5073366;28;20051;-75
2021/11/04 00:50:37;;;;;;;58.63;27.42;;;;;;;9.41;90.88;100391.75;5073605;28;20024;-76
2021/11/04 00:53:02;;;;;;;49.70;26.92;;;;;;;9.42;90.86;100396.94;5073316;28;20461;-75
2021/11/04 00:55:28;;;;;;;47.03;26.80;;;;;;;9.42;90.73;100396.94;5073246;28;20078;-75
2021/11/04 00:57:53;;;;;;;43.08;27.25;;;;;;;9.41;90.80;100399.94;5072077;28;20066;-75
2021/11/04 01:00:19;;;;;;;48.55;27.20;;;;;;;9.42;90.86;100390.69;5073503;28;20032;-75
2021/11/04 01:02:44;;;;;;;46.90;27.30;;;;;;;9.43;90.79;100397.75;5055530;28;20024;-75
2021/11/04 01:05:10;;;;;;;46.65;28.23;;;;;;;9.45;90.83;100390.94;5073464;28;20016;-75
2021/11/04 01:07:35;;;;;;;49.08;27.63;;;;;;;9.48;90.66;100389.59;5073226;28;20016;-75
2021/11/04 01:10:01;;;;;;;45.30;25.98;;;;;;;9.47;90.56;100387.97;5072728;28;20052;-75
2021/11/04 01:12:26;;;;;;;45.65;27.70;;;;;;;9.46;90.49;100392.56;5073074;28;20047;-75
2021/11/04 01:14:51;;;;;;;48.75;27.98;;;;;;;9.46;90.53;100394.47;5071777;28;20428;-76
2021/11/04 01:17:17;;;;;;;44.70;26.38;;;;;;;9.45;90.63;100390.94;5072953;28;20025;-75
2021/11/04 01:19:42;;;;;;;48.90;26.75;;;;;;;9.47;90.56;100393.41;5072997;28;20089;-75
2021/11/04 01:22:08;;;;;;;46.67;28.88;;;;;;;9.47;90.48;100393.41;5072797;28;20020;-75
2021/11/04 01:24:33;;;;;;;47.72;27.65;;;;;;;9.45;90.68;100387.41;5072881;28;20070;-75
2021/11/04 01:26:59;;;;;;;52.95;29.77;;;;;;;9.43;90.61;100392.31;5072652;28;20017;-76
2021/11/04 01:29:24;;;;;;;48.55;29.02;;;;;;;9.40;90.72;100388.22;5072864;28;20028;-75
2021/11/04 01:31:49;;;;;;;49.10;28.67;;;;;;;9.39;90.70;100389.34;5072607;28;20032;-75
2021/11/04 01:34:15;;;;;;;51.83;29.10;;;;;;;9.34;90.71;100395.59;5071394;28;20062;-74
2021/11/04 01:36:40;;;;;;;48.53;27.13;;;;;;;9.29;90.64;100384.72;5070746;28;20025;-74
2021/11/04 01:39:06;;;;;;;46.92;29.90;;;;;;;9.26;90.62;100390.72;5071020;28;20024;-73
2021/11/04 01:41:31;;;;;;;48.10;28.83;;;;;;;9.24;90.50;100384.72;5065259;28;20097;-73
2021/11/04 01:43:57;;;;;;;47.65;27.30;;;;;;;9.19;90.77;100398.31;5074535;28;20081;-74
2021/11/04 01:46:23;;;;;;;44.90;27.67;;;;;;;9.18;90.51;100391.28;5073854;28;20687;-74
2021/11/04 01:48:48;;;;;;;45.20;27.42;;;;;;;9.17;90.84;100395.09;5065094;28;20016;-73
2021/11/04 01:51:14;;;;;;;47.05;26.75;;;;;;;9.17;90.59;100395.09;5092529;28;20358;-73
2021/11/04 01:53:39;;;;;;;50.15;27.48;;;;;;;9.15;90.79;100396.44;5074731;28;20032;-73
2021/11/04 01:56:05;;;;;;;52.17;28.25;;;;;;;9.12;90.62;100400.53;5092387;28;20081;-74
2021/11/04 01:58:31;;;;;;;48.53;28.23;;;;;;;9.13;90.58;100402.16;5091207;28;20152;-74
2021/11/04 02:00:56;;;;;;;46.72;27.80;;;;;;;9.13;90.64;100399.44;5091210;28;20081;-73
2021/11/04 02:03:26;;;;;;;55.15;29.80;;;;;;;9.16;90.63;100403.50;5091093;28;20028;-74
2021/11/04 02:06:10;;;;;;;51.15;30.13;;;;;;;9.18;90.58;100401.34;5091207;28;20024;-73
2021/11/04 02:08:44;;;;;;;50.88;29.70;;;;;;;9.20;90.44;100404.59;5090768;28;20135;-75
2021/11/04 02:11:14;;;;;;;52.75;29.90;;;;;;;9.23;90.57;100404.06;5091396;28;20024;-74
2021/11/04 02:13:45;;;;;;;47.10;29.33;;;;;;;9.22;90.42;100400.53;5090919;28;20065;-74
2021/11/04 02:16:11;;;;;;;48.13;27.27;;;;;;;9.22;90.33;100397.81;5091276;28;20107;-74
2021/11/04 02:18:36;;;;;;;48.05;28.58;;;;;;;9.24;90.38;100406.47;5092097;28;20016;-75
2021/11/04 02:21:11;;;;;;;49.05;27.15;;;;;;;9.25;90.54;100410.84;5091095;28;20031;-73
2021/11/04 02:24:08;;;;;;;48.75;28.00;;;;;;;9.29;90.43;100420.09;5092107;28;20024;-74
2021/11/04 02:26:34;;;;;;;53.28;28.02;;;;;;;9.33;90.44;100413.00;5089009;28;20042;-74
2021/11/04 02:29:00;;;;;;;52.97;28.02;;;;;;;9.36;90.45;100414.38;5090881;28;20420;-74
2021/11/04 02:31:25;;;;;;;51.70;29.15;;;;;;;9.41;90.41;100416.25;5090933;28;20499;-75
2021/11/04 02:33:51;;;;;;;52.38;27.83;;;;;;;9.42;90.19;100407.00;5073886;28;20071;-74
2021/11/04 02:36:16;;;;;;;45.00;27.15;;;;;;;9.43;90.39;100405.91;5090770;28;20028;-74
2021/11/04 02:38:42;;;;;;;46.90;26.58;;;;;;;9.44;90.23;100402.94;5090730;28;20028;-75
2021/11/04 02:41:07;;;;;;;46.10;28.00;;;;;;;9.47;90.26;100409.72;5091975;28;20024;-74
2021/11/04 02:43:33;;;;;;;43.30;26.73;;;;;;;9.47;90.19;100409.72;5073945;28;20031;-73
2021/11/04 02:45:59;;;;;;;45.50;26.35;;;;;;;9.48;90.10;100411.34;5075123;28;20017;-74
2021/11/04 02:48:25;;;;;;;47.13;26.90;;;;;;;9.50;90.00;100414.63;5071276;28;20024;-74
2021/11/04 02:50:52;;;;;;;53.45;30.63;;;;;;;9.53;89.89;100417.59;5074665;28;20362;-75
2021/11/04 02:53:18;;;;;;;46.58;27.00;;;;;;;9.55;90.04;100418.13;5074449;28;20529;-74
2021/11/04 02:55:44;;;;;;;48.97;26.83;;;;;;;9.56;89.75;100424.38;5074468;28;20032;-73
2021/11/04 02:58:11;;;;;;;48.35;27.85;;;;;;;9.57;89.79;100426.00;5075621;28;20362;-73
2021/11/04 03:00:38;;;;;;;45.92;27.38;;;;;;;9.58;89.54;100416.78;5074396;28;20491;-74
2021/11/04 03:03:04;;;;;;;44.60;26.30;;;;;;;9.59;89.62;100423.84;5073928;28;20028;-74
2021/11/04 03:05:29;;;;;;;42.10;26.50;;;;;;;9.60;89.78;100420.00;5095852;28;20035;-75
2021/11/04 03:07:55;;;;;;;44.35;25.60;;;;;;;9.61;89.50;100420.84;5094586;28;20027;-73
2021/11/04 03:10:20;;;;;;;46.42;27.75;;;;;;;9.62;89.43;100419.75;5094135;28;20044;-74
2021/11/04 03:12:45;;;;;;;44.03;27.00;;;;;;;9.64;89.51;100420.28;5077501;28;20036;-75
2021/11/04 03:15:12;;;;;;;46.50;27.45;;;;;;;9.63;89.24;100419.47;5094094;28;20020;-74
2021/11/04 03:17:38;;;;;;;49.00;28.40;;;;;;;9.65;89.29;100421.91;5094310;28;20051;-74
2021/11/04 03:20:04;;;;;;;43.65;27.00;;;;;;;9.65;89.18;100422.72;5077292;28;20545;-74
2021/11/04 03:22:29;;;;;;;41.78;25.73;;;;;;;9.63;89.18;100430.38;5095719;28;20526;-75
2021/11/04 03:24:54;;;;;;;43.00;26.38;;;;;;;9.62;89.02;100434.16;5094248;28;20032;-74
2021/11/04 03:27:20;;;;;;;45.67;27.52;;;;;;;9.62;89.33;100426.00;5077045;28;20028;-73
2021/11/04 03:29:45;;;;;;;43.30;27.00;;;;;;;9.62;89.56;100431.44;5094185;28;20023;-74
2021/11/04 03:32:16;;;;;;;44.78;27.33;;;;;;;9.63;89.32;100433.09;5076892;28;20416;-74
2021/11/04 03:34:42;;;;;;;38.22;25.63;;;;;;;9.61;89.35;100429.81;5094067;28;20520;-74
2021/11/04 03:37:08;;;;;;;44.05;25.35;;;;;;;9.61;89.08;100437.19;5093772;28;20032;-74
2021/11/04 03:39:33;;;;;;;42.88;23.42;;;;;;;9.59;89.19;100428.47;5094181;28;20039;-74
2021/11/04 03:41:59;;;;;;;42.80;23.63;;;;;;;9.58;89.01;100430.38;5077173;28;20410;-74
2021/11/04 03:44:24;;;;;;;46.55;24.48;;;;;;;9.57;89.02;100442.34;5074599;28;20016;-74
2021/11/04 03:46:50;;;;;;;42.97;24.17;;;;;;;9.56;88.98;100440.72;5073543;28;20485;-74
2021/11/04 03:49:16;;;;;;;41.58;23.65;;;;;;;9.58;89.15;100440.47;5071038;28;20111;-73
2021/11/04 03:51:42;;;;;;;42.58;25.38;;;;;;;9.58;89.25;100438.53;5093755;28;20036;-74
2021/11/04 03:54:08;;;;;;;38.50;24.65;;;;;;;9.58;89.35;100432.28;5077175;28;20455;-75
2021/11/04 03:56:33;;;;;;;41.00;23.98;;;;;;;9.56;89.42;100432.56;5093447;28;20184;-74
2021/11/04 03:58:59;;;;;;;35.50;22.73;;;;;;;9.53;89.20;100436.66;5076785;28;20016;-75
2021/11/04 04:01:25;;;;;;;38.38;23.20;;;;;;;9.52;89.08;100420.56;5093591;28;20072;-74
2021/11/04 04:03:50;;;;;;;37.15;24.85;;;;;;;9.48;89.08;100428.47;5076800;28;20024;-74
2021/11/04 04:06:16;;;;;;;40.35;23.00;;;;;;;9.44;89.13;100426.59;5093299;28;20477;-74
2021/11/04 04:08:45;;;;;;;40.30;23.80;;;;;;;9.39;89.29;100419.25;5094676;28;20035;-74
2021/11/04 04:11:10;;;;;;;38.40;22.40;;;;;;;9.33;89.31;100421.19;5077171;28;20101;-75
2021/11/04 04:13:35;;;;;;;35.53;22.25;;;;;;;9.30;89.19;100434.50;5093173;28;20016;-74
2021/11/04 04:16:01;;;;;;;33.63;21.98;;;;;;;9.27;89.27;100444.00;5093271;28;20024;-74
2021/11/04 04:18:26;;;;;;;38.42;23.50;;;;;;;9.23;89.19;100442.94;5094247;28;20020;-73
2021/11/04 04:20:52;;;;;;;32.78;21.15;;;;;;;9.20;89.24;100446.22;5094394;28;20125;-74
2021/11/04 04:23:18;;;;;;;37.42;21.77;;;;;;;9.17;89.43;100438.59;5093031;28;20032;-74
2021/11/04 04:25:44;;;;;;;33.63;20.67;;;;;;;9.15;89.35;100443.50;5076185;28;20433;-74
2021/11/04 04:28:09;;;;;;;35.38;20.92;;;;;;;9.14;89.30;100443.75;5094500;28;20107;-74
2021/11/04 04:30:35;;;;;;;34.03;21.13;;;;;;;9.13;89.14;100450.28;5094057;28;20016;-75
2021/11/04 04:33:00;;;;;;;37.03;23.05;;;;;;;9.14;89.47;100444.59;5094217;28;20020;-74
2021/11/04 04:35:25;;;;;;;31.33;21.33;;;;;;;9.14;89.61;100444.59;5092709;28;20024;-74
2021/11/04 04:37:51;;;;;;;36.60;21.33;;;;;;;9.15;89.39;100448.94;5092775;28;20020;-74
2021/11/04 04:40:16;;;;;;;32.63;20.40;;;;;;;9.17;89.29;100449.47;5092747;28;20469;-74
2021/11/04 04:42:42;;;;;;;33.72;22.48;;;;;;;9.19;89.09;100444.56;5093999;28;20502;-73
2021/11/04 04:45:08;;;;;;;33.22;20.98;;;;;;;9.22;89.09;100452.19;5085419;28;20519;-74
2021/11/04 04:47:33;;;;;;;32.90;20.70;;;;;;;9.26;88.94;100455.19;5069647;28;20032;-74
2021/11/04 04:49:59;;;;;;;33.90;19.67;;;;;;;9.27;89.23;100457.63;5062081;28;20108;-74
2021/11/04 04:52:25;;;;;;;31.77;19.65;;;;;;;9.29;88.83;100458.16;5092502;28;20065;-74
2021/11/04 04:54:51;;;;;;;33.85;21.52;;;;;;;9.32;88.77;100463.06;5092364;28;20047;-74
2021/11/04 04:57:22;;;;;;;34.67;20.83;;;;;;;9.35;88.83;100464.41;5055330;28;20384;-75
2021/11/04 04:59:50;;;;;;;31.80;19.37;;;;;;;9.38;88.93;100460.34;5073161;28;20048;-74
2021/11/04 05:02:15;;;;;;;27.33;19.50;;;;;;;9.40;88.59;100469.84;5072069;28;20031;-74
2021/11/04 05:04:41;;;;;;;30.55;19.50;;;;;;;9.43;88.62;100465.78;5073130;28;20103;-74
2021/11/04 05:07:06;;;;;;;30.65;19.15;;;;;;;9.44;88.54;100473.69;5072007;28;20021;-74
2021/11/04 05:09:32;;;;;;;33.75;18.92;;;;;;;9.46;88.52;100473.38;5072984;28;20044;-74
2021/11/04 05:11:57;;;;;;;27.27;18.35;;;;;;;9.47;88.57;100477.75;5072801;28;20012;-74
2021/11/04 05:14:22;;;;;;;29.77;19.52;;;;;;;9.49;88.30;100476.41;5073221;28;20474;-74
2021/11/04 05:16:48;;;;;;;29.70;19.42;;;;;;;9.49;88.23;100481.84;5071650;28;20067;-74
2021/11/04 05:19:13;;;;;;;28.73;19.80;;;;;;;9.50;88.18;100485.38;5073238;28;20390;-74
2021/11/04 05:21:40;;;;;;;30.08;19.35;;;;;;;9.51;88.09;100489.72;5072700;28;20470;-74
2021/11/04 05:24:08;;;;;;;31.35;20.42;;;;;;;9.51;88.06;100485.06;5062094;28;20020;-75
2021/11/04 05:26:34;;;;;;;30.17;20.15;;;;;;;9.53;88.29;100482.91;5091715;28;20481;-74
2021/11/04 05:29:00;;;;;;;30.67;21.15;;;;;;;9.52;88.03;100481.28;5091676;28;20024;-74
2021/11/04 05:31:25;;;;;;;33.00;20.83;;;;;;;9.54;88.07;100486.44;5091859;28;20417;-74
2021/11/04 05:33:53;;;;;;;31.70;19.88;;;;;;;9.54;88.04;100481.81;5091611;28;20027;-74
2021/11/04 05:36:19;;;;;;;36.05;20.73;;;;;;;9.54;88.21;100475.56;5092872;28;20481;-74
2021/11/04 05:38:44;;;;;;;32.10;20.30;;;;;;;9.54;88.27;100478.28;5092670;28;20036;-74
2021/11/04 05:41:10;;;;;;;34.97;21.98;;;;;;;9.54;88.14;100475.56;5092861;28;20016;-74
2021/11/04 05:43:35;;;;;;;35.20;20.23;;;;;;;9.52;88.13;100475.00;5092845;28;20020;-75
2021/11/04 05:46:01;;;;;;;35.90;20.73;;;;;;;9.49;88.30;100483.72;5075525;28;20016;-74
2021/11/04 05:48:26;;;;;;;33.50;20.25;;;;;;;9.45;88.14;100478.03;5072426;28;20016;-74
2021/11/04 05:50:52;;;;;;;32.97;20.67;;;;;;;9.44;88.09;100481.00;5051432;28;20070;-74
2021/11/04 05:53:17;;;;;;;36.55;21.58;;;;;;;9.40;88.09;100479.94;5092479;28;20016;-74
2021/11/04 05:55:43;;;;;;;33.42;21.42;;;;;;;9.36;88.46;100487.00;5092538;28;20442;-74
2021/11/04 05:58:08;;;;;;;35.03;21.88;;;;;;;9.32;88.08;100489.44;5092421;28;20020;-74
2021/11/04 06:00:33;;;;;;;34.00;20.73;;;;;;;9.30;88.21;100487.00;5092485;28;20439;-74
2021/11/04 06:02:59;;;;;;;33.67;21.42;;;;;;;9.27;88.07;100487.53;5092314;28;20034;-73
2021/11/04 06:05:25;;;;;;;49.13;23.45;;;;;;;9.26;88.15;100480.47;5091242;28;20039;-74
2021/11/04 06:07:50;;;;;;;38.85;22.58;;;;;;;9.24;88.34;100488.09;5092477;28;20028;-74
2021/11/04 06:10:16;;;;;;;36.67;21.95;;;;;;;9.22;88.45;100492.16;5092039;28;20056;-74
2021/11/04 06:12:42;;;;;;;42.95;24.15;;;;;;;9.19;88.46;100496.25;5092237;28;20031;-74
2021/11/04 06:15:07;;;;;;;30.50;18.88;;;;;;;9.18;88.42;100499.25;5091009;28;20034;-74
2021/11/04 06:17:33;;;;;;;22.55;14.90;;;;;;;9.11;88.25;100510.38;5092171;28;20384;-74
2021/11/04 06:19:58;;;;;;;21.35;13.90;;;;;;;9.06;88.47;100513.13;5092082;28;20385;-73
2021/11/04 06:22:23;;;;;;;19.95;12.52;;;;;;;9.04;88.60;100509.84;5092480;28;20024;-74
2021/11/04 06:24:49;;;;;;;25.52;14.18;;;;;;;9.01;88.85;100507.66;5091527;28;20032;-74
2021/11/04 06:27:14;;;;;;;18.90;13.27;;;;;;;9.00;89.01;100508.75;5092045;28;20024;-73
2021/11/04 06:29:40;;;;;;;18.52;11.57;;;;;;;9.00;88.88;100519.63;5074007;28;20477;-74
2021/11/04 06:32:05;;;;;;;16.98;11.80;;;;;;;9.00;88.95;100519.63;5090763;28;20023;-73
2021/11/04 06:34:33;;;;;;;20.35;12.05;;;;;;;9.00;89.11;100525.06;5073998;28;20022;-73
2021/11/04 06:36:58;;;;;;;19.52;13.02;;;;;;;8.99;89.30;100520.72;5091747;28;20438;-74
2021/11/04 06:39:24;;;;;;;25.35;13.88;;;;;;;8.97;89.47;100526.41;5092063;28;20027;-74
2021/11/04 06:41:49;;;;;;;26.95;13.32;;;;;;;8.95;89.22;100527.75;5092252;28;20094;-74
2021/11/04 06:44:14;;;;;;;22.58;13.65;;;;;;;8.96;89.33;100532.13;5089550;28;20020;-74
2021/11/04 06:46:41;;;;;;;24.90;12.93;;;;;;;8.96;89.85;100529.41;5071816;28;20024;-74
2021/11/04 06:49:07;;;;;;;21.20;11.68;;;;;;;8.96;89.48;100532.13;5070437;28;20390;-74
2021/11/04 06:51:38;;;;;;;19.25;11.85;;;;;;;8.95;89.83;100534.03;5073047;28;20485;-74
2021/11/04 06:54:04;;;;;;;22.70;12.73;;;;;;;8.97;89.65;100531.03;5090680;28;20039;-74
2021/11/04 06:56:34;;;;;;;19.63;12.05;;;;;;;8.94;89.76;100528.84;5090403;28;20020;-74
2021/11/04 06:59:00;;;;;;;19.38;12.90;;;;;;;8.92;89.68;100533.75;5074414;28;20073;-73
2021/11/04 07:01:25;;;;;;;18.48;13.20;;;;;;;8.91;90.04;100527.50;5073526;28;20028;-75
2021/11/04 07:03:57;;;;;;;27.60;13.23;;;;;;;8.92;89.94;100528.28;5073877;28;20070;-74
2021/11/04 07:06:26;;;;;;;17.60;11.93;;;;;;;8.89;89.87;100530.50;5090514;28;20142;-75
2021/11/04 07:09:02;;;;;;;20.38;12.57;;;;;;;8.88;90.20;100539.72;5090442;28;20032;-75
2021/11/04 07:11:29;;;;;;;19.90;12.63;;;;;;;8.85;90.07;100540.25;5073676;28;20024;-74
2021/11/04 07:13:54;;;;;;;21.23;12.80;;;;;;;8.83;90.34;100542.41;5091690;28;20020;-74
2021/11/04 07:16:22;;;;;;;21.85;14.13;;;;;;;8.81;90.23;100543.75;5091670;28;20032;-74
2021/11/04 07:18:51;;;;;;;19.80;13.40;;;;;;;8.78;90.01;100539.69;5073741;28;20012;-74
2021/11/04 07:21:24;;;;;;;22.15;13.57;;;;;;;8.73;90.04;100553.28;5090469;28;20477;-74
2021/11/04 07:24:03;;;;;;;24.95;13.77;;;;;;;8.71;90.25;100550.00;5091509;28;20024;-75
2021/11/04 07:26:40;;;;;;;19.90;13.00;;;;;;;8.71;90.49;100550.00;5061823;28;20086;-74
2021/11/04 07:29:07;;;;;;;26.20;13.38;;;;;;;8.72;90.34;100543.47;5070227;28;20051;-74
2021/11/04 07:31:42;;;;;;;21.17;14.27;;;;;;;8.75;90.72;100551.09;5070172;28;20107;-74
2021/11/04 07:34:11;;;;;;;24.67;13.32;;;;;;;8.77;90.52;100553.56;5073256;28;20526;-74
2021/11/04 07:36:38;;;;;;;21.65;13.27;;;;;;;8.77;90.41;100559.81;5077371;28;20032;-74
2021/11/04 07:39:04;;;;;;;21.42;12.45;;;;;;;8.77;90.51;100565.25;5093883;28;20028;-74
2021/11/04 07:41:31;;;;;;;22.95;13.07;;;;;;;8.77;90.50;100570.69;5095156;28;20020;-74
2021/11/04 07:43:59;;;;;;;17.98;11.88;;;;;;;8.76;90.48;100569.06;5076880;28;20388;-74
2021/11/04 07:46:25;;;;;;;25.40;13.88;;;;;;;8.74;90.69;100570.41;5075791;28;20029;-73
2021/11/04 07:48:51;;;;;;;23.10;13.07;;;;;;;8.70;90.46;100564.66;5067873;28;20024;-73
2021/11/04 07:51:16;;;;;;;21.10;12.40;;;;;;;8.66;90.71;100567.09;5076743;28;20080;-74
2021/11/04 07:53:42;;;;;;;20.38;12.30;;;;;;;8.63;90.60;100569.53;5093769;28;20071;-74
2021/11/04 07:56:09;;;;;;;19.75;11.82;;;;;;;8.60;90.68;100575.53;5093447;28;20028;-74
2021/11/04 07:58:35;;;;;;;17.35;11.98;;;;;;;8.57;90.87;100576.06;5093534;28;20024;-74
2021/11/04 08:01:01;;;;;;;21.50;11.93;;;;;;;8.54;90.90;100576.56;5093586;28;20095;-74
2021/11/04 08:03:26;;;;;;;18.77;11.88;;;;;;;8.56;91.01;100580.66;5094649;28;20381;-74
2021/11/04 08:05:52;;;;;;;17.60;10.80;;;;;;;8.58;90.87;100588.53;5094724;28;20024;-74
2021/11/04 08:08:18;;;;;;;14.77;10.80;;;;;;;8.60;91.15;100589.09;5093325;28;20511;-74
2021/11/04 08:10:43;;;;;;;18.83;9.75;;;;;;;8.65;90.70;100586.41;5094302;28;20060;-74
2021/11/04 08:13:13;;;;;;;15.00;10.45;;;;;;;8.71;90.85;100592.69;5094242;28;20031;-74
2021/11/04 08:15:38;;;;;;;15.38;10.02;;;;;;;8.76;90.89;100593.53;5094504;28;20028;-74
2021/11/04 08:18:04;;;;;;;17.65;9.70;;;;;;;8.82;90.79;100597.88;5093232;28;20047;-74
2021/11/04 08:20:29;;;;;;;18.08;10.07;;;;;;;8.87;90.66;100607.97;5094899;28;20444;-73
2021/11/04 08:22:55;;;;;;;12.93;8.45;;;;;;;8.87;90.70;100614.22;5093238;28;20027;-74
2021/11/04 08:25:21;;;;;;;10.90;8.52;;;;;;;8.88;90.69;100621.28;5094206;28;20748;-73
2021/11/04 08:27:46;;;;;;;23.17;9.70;;;;;;;8.91;90.74;100627.28;5094313;28;20489;-74
2021/11/04 08:30:15;;;;;;;15.77;9.00;;;;;;;8.94;90.32;100622.09;5093992;28;20030;-74
2021/11/04 08:32:43;;;;;;;18.70;9.77;;;;;;;9.00;90.56;100621.06;5093015;28;20028;-73
2021/11/04 08:35:08;;;;;;;13.48;9.18;;;;;;;9.05;90.46;100625.69;5092985;28;20469;-73
2021/11/04 08:37:34;;;;;;;15.00;8.98;;;;;;;9.12;90.39;100615.38;5092596;28;20028;-74
2021/11/04 08:39:59;;;;;;;14.73;9.52;;;;;;;9.16;90.15;100619.19;5094045;28;20016;-74
2021/11/04 08:42:25;;;;;;;14.23;8.55;;;;;;;9.24;90.37;100620.56;5093851;28;20054;-73
2021/11/04 08:44:51;;;;;;;13.27;8.88;;;;;;;9.28;90.04;100618.94;5075685;28;20020;-74
2021/11/04 08:47:16;;;;;;;13.55;8.60;;;;;;;9.32;89.68;100625.47;5092431;28;20477;-74
2021/11/04 08:49:42;;;;;;;16.65;8.40;;;;;;;9.33;89.66;100616.25;5093719;28;20024;-74
2021/11/04 08:52:08;;;;;;;11.98;8.75;;;;;;;9.34;89.43;100618.69;5092669;28;20031;-74
2021/11/04 08:54:34;;;;;;;12.82;8.00;;;;;;;9.34;89.08;100615.94;5093609;28;20439;-73
2021/11/04 08:57:00;;;;;;;13.82;8.25;;;;;;;9.34;88.87;100628.75;5093711;28;20024;-73
2021/11/04 08:59:25;;;;;;;12.68;6.85;;;;;;;9.33;88.55;100621.69;5093724;28;20031;-73
2021/11/04 09:01:50;;;;;;;9.32;6.53;;;;;;;9.31;88.17;100619.22;5092218;28;20071;-72
2021/11/04 09:04:16;;;;;;;10.57;7.35;;;;;;;9.32;88.40;100623.56;5093513;28;20386;-74
2021/11/04 09:06:42;;;;;;;10.18;6.63;;;;;;;9.34;88.19;100615.94;5093221;28;20020;-73
2021/11/04 09:09:08;;;;;;;14.13;7.95;;;;;;;9.34;88.14;100620.59;5091981;28;20201;-73
2021/11/04 09:11:33;;;;;;;10.10;6.70;;;;;;;9.29;87.51;100624.09;5092383;28;20028;-74
2021/11/04 09:13:59;;;;;;;8.40;6.88;;;;;;;9.27;87.29;100629.00;5067488;28;20030;-74
2021/11/04 09:16:25;;;;;;;9.15;6.60;;;;;;;9.28;87.31;100629.81;5073025;28;20020;-73
2021/11/04 09:18:50;;;;;;;8.23;6.55;;;;;;;9.30;87.26;100625.75;5072904;28;20048;-74
2021/11/04 09:21:16;;;;;;;10.27;6.47;;;;;;;9.32;87.28;100629.00;5072941;28;20047;-73
2021/11/04 09:23:41;;;;;;;11.63;6.05;;;;;;;9.34;87.14;100624.13;5072796;28;20482;-74
2021/11/04 09:26:07;;;;;;;8.57;5.95;;;;;;;9.36;87.13;100628.47;5072955;28;20403;-73
2021/11/04 09:28:32;;;;;;;9.82;5.82;;;;;;;9.32;86.62;100625.47;5072709;28;20025;-74
2021/11/04 09:30:57;;;;;;;12.43;5.55;;;;;;;9.29;86.64;100628.72;5071628;28;20017;-74
2021/11/04 09:33:23;;;;;;;12.65;6.43;;;;;;;9.30;86.35;100627.63;5072731;28;20032;-74
2021/11/04 09:35:50;;;;;;;9.93;5.38;;;;;;;9.32;86.63;100620.03;5072617;28;20020;-74
2021/11/04 09:38:15;;;;;;;6.78;4.82;;;;;;;9.38;86.69;100620.84;5072583;28;20031;-74
2021/11/04 09:40:40;;;;;;;8.85;4.82;;;;;;;9.42;86.13;100624.69;5071317;28;20024;-74
2021/11/04 09:43:06;;;;;;;7.03;5.47;;;;;;;9.43;86.10;100626.31;5072501;28;20074;-75
2021/11/04 09:45:31;;;;;;;13.77;5.80;;;;;;;9.47;86.04;100630.13;5082956;28;20020;-74
2021/11/04 09:47:57;;;;;;;6.13;5.20;;;;;;;9.51;86.02;100628.50;5074872;28;20556;-74
2021/11/04 09:50:22;;;;;;;9.48;5.80;;;;;;;9.52;85.71;100630.97;5072419;28;20021;-74
2021/11/04 09:52:53;;;;;;;12.25;5.68;;;;;;;9.52;85.71;100630.13;5072227;28;20053;-75
2021/11/04 09:55:19;;;;;;;9.43;5.55;;;;;;;9.55;85.57;100635.84;5072393;28;20085;-75
2021/11/04 09:57:46;;;;;;;9.43;6.00;;;;;;;9.56;85.58;100631.22;5071585;28;20048;-74
2021/11/04 10:00:12;;;;;;;11.38;5.43;;;;;;;9.60;85.54;100632.31;5070898;28;20020;-75
2021/11/04 10:02:39;;;;;;;10.05;5.93;;;;;;;9.64;85.32;100625.25;5071365;28;20078;-74
2021/11/04 10:05:08;;;;;;;8.73;5.53;;;;;;;9.70;85.20;100623.34;5071275;28;20063;-75
2021/11/04 10:07:50;;;;;;;8.00;4.75;;;;;;;9.77;85.04;100623.91;5072208;28;20400;-74
2021/11/04 10:10:17;;;;;;;6.78;4.70;;;;;;;9.85;85.05;100627.94;5074552;28;20040;-73
2021/11/04 10:12:58;;;;;;;9.13;4.68;;;;;;;9.87;84.80;100620.34;5091123;28;20511;-72
2021/11/04 10:15:23;;;;;;;5.50;3.83;;;;;;;9.93;84.87;100630.13;5092112;28;20028;-73
2021/11/04 10:17:49;;;;;;;8.48;3.97;;;;;;;9.98;84.66;100617.34;5092464;28;20047;-73
2021/11/04 10:20:16;;;;;;;6.35;3.42;;;;;;;10.02;84.63;100622.25;5090882;28;20019;-74
2021/11/04 10:22:41;;;;;;;6.25;3.63;;;;;;;10.05;84.36;100622.50;5091071;28;20031;-73
2021/11/04 10:25:20;;;;;;;6.53;3.97;;;;;;;10.11;84.17;100626.03;5091976;28;20028;-73
2021/11/04 10:27:46;;;;;;;9.85;3.67;;;;;;;10.17;84.00;100628.47;5065009;28;20021;-73
2021/11/04 10:30:34;;;;;;;6.85;4.68;;;;;;;10.22;83.62;100622.19;5071839;28;20051;-74
2021/11/04 10:32:59;;;;;;;5.32;3.67;;;;;;;10.33;83.51;100633.94;5071204;28;20029;-73
2021/11/04 10:35:30;;;;;;;6.00;3.63;;;;;;;10.40;82.93;100624.38;5070597;28;20036;-73
2021/11/04 10:37:59;;;;;;;6.63;3.60;;;;;;;10.49;82.81;100615.63;5070569;28;20359;-74
2021/11/04 10:40:24;;;;;;;6.75;4.00;;;;;;;10.58;82.47;100613.97;5070636;28;20495;-74
2021/11/04 10:42:53;;;;;;;6.28;4.32;;;;;;;10.75;82.42;100621.81;5071812;28;20032;-74
2021/11/04 10:45:28;;;;;;;7.78;3.67;;;;;;;10.95;82.05;100629.09;5081546;28;20020;-74
2021/11/04 10:48:30;;;;;;;5.60;4.15;;;;;;;11.12;81.19;100626.81;5074606;28;20081;-74
2021/11/04 10:50:55;;;;;;;9.63;3.85;;;;;;;11.27;81.05;100623.19;5013229;28;20021;-73
2021/11/04 10:53:21;;;;;;;8.10;3.67;;;;;;;11.38;80.38;100621.22;5043545;28;20047;-73
2021/11/04 10:55:50;;;;;;;6.75;3.60;;;;;;;11.43;79.78;100624.72;5091895;28;20480;-75
2021/11/04 10:58:28;;;;;;;9.52;3.50;;;;;;;11.53;79.12;100612.91;5055507;28;20025;-75
2021/11/04 11:00:54;;;;;;;8.75;3.88;;;;;;;11.68;78.81;100626.47;5070578;28;20034;-74
2021/11/04 11:03:22;;;;;;;10.10;3.40;;;;;;;11.81;78.38;100624.97;5070363;28;20028;-74
2021/11/04 11:05:47;;;;;;;6.25;4.18;;;;;;;11.94;78.08;100621.59;5071607;28;20020;-75
2021/11/04 11:08:13;;;;;;;7.15;3.53;;;;;;;12.05;77.50;100613.31;5071504;28;20027;-74
2021/11/04 11:10:39;;;;;;;3.97;3.10;;;;;;;12.14;77.25;100606.97;5072927;28;20049;-74
2021/11/04 11:13:05;;;;;;;4.93;3.88;;;;;;;12.32;76.74;100605.38;5071956;28;20348;-73
2021/11/04 11:15:32;;;;;;;7.75;3.72;;;;;;;12.43;76.09;100604.16;5095687;28;20095;-74
2021/11/04 11:17:57;;;;;;;6.18;3.35;;;;;;;12.39;75.74;100600.41;5095541;28;20081;-73